Flight Track Log - Related Links

Times and Time Zones

All times are in EDT time to prevent confusion due to time zone crossing. See the QTR889 flight status page for this flight to view local times or setup timezone preferences in your user account.

Time Position Orientation Groundspeed Altitude Reporting Facility
EDT Latitude Longitude Course Direction KTS MPH feet Rate Location/Type
Mon 12:34:24 PM 31.0062 121.4977 283° West 314 361 11,500  Level FlightAware ADS-B (ZSSS / SHA)
Mon 12:34:55 PM 31.0160 121.4471 283° West 329 379 12,200 1,241 Climbing FlightAware ADS-B (ZSSS / SHA)
Mon 12:35:22 PM 31.0249 121.4010 283° West 349 402 12,700 1,417 Climbing FlightAware ADS-B (ZSSS / SHA)
Mon 12:36:07 PM 31.0420 121.3131 283° West 367 422 13,900 1,737 Climbing FlightAware ADS-B (ZSSS / SHA)
Mon 12:36:38 PM 31.0539 121.2513 283° West 372 428 14,900 1,839 Climbing FlightAware ADS-B (ZSSS / SHA)
Mon 12:37:09 PM 31.0684 121.1936 297° West 384 442 15,800 1,773 Climbing FlightAware ADS-B (ZSSS / SHA)
Mon 12:37:22 PM 31.0827 121.1715 314° West 391 450 16,200 1,636 Climbing FlightAware ADS-B (ZSSS / SHA)
Mon 12:37:42 PM 31.1100 121.1503 338° Northwest 405 466 16,700 1,789 Climbing FlightAware ADS-B (ZSSS / SHA)
Mon 12:38:19 PM 31.1824 121.1378 357° North 414 476 17,900 1,846 Climbing FlightAware ADS-B (ZSSS / SHA)
Mon 12:38:47 PM 31.2363 121.1350 358° North 419 482 18,700 1,525 Climbing FlightAware ADS-B (ZSSS / SHA)
Mon 12:39:18 PM 31.2853 121.1320 357° North 425 489 19,400 1,200 Climbing FlightAware ADS-B (ZSSS / SHA)
Mon 12:39:37 PM 31.3345 121.1282 356° North 428 493 19,700 522 Climbing FlightAware ADS-B (ZSSS / SHA)
Mon 12:40:27 PM 31.4059 121.1216 352° North 425 489 20,000 360 Climbing FlightAware ADS-B (ZSSS / SHA)
Mon 12:43:00 PM 31.4641 120.8303 283° West  Level Estimated
Mon 12:44:00 PM 31.4867 120.7159 283° West  Level Estimated
Mon 12:45:00 PM 31.5093 120.6015 283° West  Level Estimated
Mon 12:46:00 PM 31.5317 120.4870 283° West  Level Estimated
Mon 12:47:00 PM 31.5541 120.3725 283° West  Level Estimated
Mon 12:48:00 PM 31.5763 120.2579 283° West  Level Estimated
Mon 12:49:00 PM 31.5985 120.1432 283° West  Level Estimated
Mon 12:50:00 PM 31.6205 120.0285 283° West  Level Estimated
Mon 12:51:00 PM 31.6424 119.9138 283° West  Level Estimated
Mon 12:52:00 PM 31.6643 119.7990 283° West  Level Estimated
Mon 12:53:00 PM 31.6860 119.6841 283° West  Level Estimated
Mon 12:54:00 PM 31.7092 119.5608 283° West  Level Estimated
Mon 12:55:00 PM 31.7323 119.4374 282° West  Level Estimated
Mon 12:56:00 PM 31.7553 119.3140 282° West  Level Estimated
Mon 12:57:00 PM 31.7781 119.1905 282° West  Level Estimated
Mon 12:58:00 PM 31.8008 119.0669 282° West  Level Estimated
Mon 12:59:00 PM 31.8234 118.9433 282° West  Level Estimated
Mon 01:00:00 PM 31.8459 118.8196 282° West  Level Estimated
Mon 01:01:00 PM 31.8683 118.6959 282° West  Level Estimated
Mon 01:02:00 PM 31.8906 118.5721 282° West  Level Estimated
Mon 01:03:00 PM 31.9127 118.4482 282° West  Level Estimated
Mon 01:04:00 PM 31.9347 118.3243 282° West  Level Estimated
Mon 01:05:00 PM 31.9566 118.2004 282° West  Level Estimated
Mon 01:06:00 PM 31.9783 118.0763 282° West  Level Estimated
Mon 01:07:00 PM 32.0000 117.9522 282° West  Level Estimated
Mon 01:08:00 PM 32.0215 117.8281 282° West  Level Estimated
Mon 01:09:00 PM 32.0429 117.7039 282° West  Level Estimated
Mon 01:10:00 PM 32.0642 117.5796 281° West  Level Estimated
Mon 01:11:00 PM 32.0854 117.4553 281° West  Level Estimated
Mon 01:12:00 PM 32.1064 117.3309 281° West  Level Estimated
Mon 01:13:00 PM 32.1273 117.2064 281° West  Level Estimated
Mon 01:14:00 PM 32.1481 117.0819 281° West  Level Estimated
Mon 01:15:00 PM 32.1688 116.9574 281° West  Level Estimated
Mon 01:16:00 PM 32.1894 116.8328 281° West  Level Estimated
Mon 01:17:00 PM 32.2098 116.7081 281° West  Level Estimated
Mon 01:18:00 PM 32.2301 116.5834 281° West  Level Estimated
Mon 01:19:00 PM 32.2503 116.4586 281° West  Level Estimated
Mon 01:20:00 PM 32.2704 116.3338 281° West  Level Estimated
Mon 01:21:00 PM 32.2903 116.2089 281° West  Level Estimated
Mon 01:22:00 PM 32.3101 116.0839 281° West  Level Estimated
Mon 01:23:00 PM 32.3298 115.9589 281° West  Level Estimated
Mon 01:24:00 PM 32.3494 115.8339 281° West  Level Estimated
Mon 01:25:00 PM 32.3688 115.7088 280° West  Level Estimated
Mon 01:26:00 PM 32.3882 115.5836 280° West  Level Estimated
Mon 01:27:00 PM 32.4074 115.4584 280° West  Level Estimated
Mon 01:28:00 PM 32.4264 115.3331 280° West  Level Estimated
Mon 01:29:00 PM 32.4454 115.2078 280° West  Level Estimated
Mon 01:30:00 PM 32.4642 115.0824 280° West  Level Estimated
Mon 01:31:00 PM 32.4829 114.9570 280° West  Level Estimated
Mon 01:32:00 PM 32.5015 114.8315 280° West  Level Estimated
Mon 01:33:00 PM 32.5200 114.7060 280° West  Level Estimated
Mon 01:34:00 PM 32.5383 114.5804 280° West  Level Estimated
Mon 01:35:00 PM 32.5565 114.4548 280° West  Level Estimated
Mon 01:36:00 PM 32.5746 114.3291 280° West  Level Estimated
Mon 01:37:00 PM 32.5925 114.2034 280° West  Level Estimated
Mon 01:38:00 PM 32.6104 114.0776 280° West  Level Estimated
Mon 01:39:00 PM 32.6281 113.9518 280° West  Level Estimated
Mon 01:40:00 PM 32.6456 113.8259 279° West  Level Estimated
Mon 01:41:00 PM 32.6631 113.6999 279° West  Level Estimated
Mon 01:42:00 PM 32.6804 113.5740 279° West  Level Estimated
Mon 01:43:00 PM 32.6976 113.4479 279° West  Level Estimated
Mon 01:44:00 PM 32.7147 113.3219 279° West  Level Estimated
Mon 01:45:00 PM 32.7317 113.1957 279° West  Level Estimated
Mon 01:46:00 PM 32.7485 113.0695 279° West  Level Estimated
Mon 01:47:00 PM 32.7652 112.9433 279° West  Level Estimated
Mon 01:48:00 PM 32.7818 112.8171 279° West  Level Estimated
Mon 01:49:00 PM 32.7982 112.6907 279° West  Level Estimated
Mon 01:50:00 PM 32.8145 112.5644 279° West  Level Estimated
Mon 01:51:00 PM 32.8307 112.4380 279° West  Level Estimated
Mon 01:52:00 PM 32.8468 112.3115 279° West  Level Estimated
Mon 01:53:00 PM 32.8627 112.1850 279° West  Level Estimated
Mon 01:54:00 PM 32.8785 112.0585 278° West  Level Estimated
Mon 01:55:00 PM 32.8942 111.9319 278° West  Level Estimated
Mon 01:56:00 PM 32.9098 111.8053 278° West  Level Estimated
Mon 01:57:00 PM 32.9252 111.6786 278° West  Level Estimated
Mon 01:58:00 PM 32.9405 111.5518 278° West  Level Estimated
Mon 01:59:00 PM 32.9557 111.4251 278° West  Level Estimated
Mon 02:00:00 PM 32.9707 111.2983 278° West  Level Estimated
Mon 02:01:00 PM 32.9856 111.1714 278° West  Level Estimated
Mon 02:02:00 PM 33.0004 111.0445 278° West  Level Estimated
Mon 02:03:00 PM 33.0150 110.9176 278° West  Level Estimated
Mon 02:04:00 PM 33.0296 110.7906 278° West  Level Estimated
Mon 02:05:00 PM 33.0440 110.6636 278° West  Level Estimated
Mon 02:06:00 PM 33.0583 110.5365 278° West  Level Estimated
Mon 02:07:00 PM 33.0724 110.4094 278° West  Level Estimated
Mon 02:08:00 PM 33.0864 110.2823 278° West  Level Estimated
Mon 02:09:00 PM 33.1003 110.1551 277° West  Level Estimated
Mon 02:10:00 PM 33.1140 110.0279 277° West  Level Estimated
Mon 02:11:00 PM 33.1277 109.9006 277° West  Level Estimated
Mon 02:12:00 PM 33.1412 109.7733 277° West  Level Estimated
Mon 02:13:00 PM 33.1545 109.6459 277° West  Level Estimated
Mon 02:14:00 PM 33.1678 109.5186 277° West  Level Estimated
Mon 02:15:00 PM 33.1809 109.3911 277° West  Level Estimated
Mon 02:16:00 PM 33.1939 109.2637 277° West  Level Estimated
Mon 02:17:00 PM 33.2067 109.1362 277° West  Level Estimated
Mon 02:18:00 PM 33.2194 109.0087 277° West  Level Estimated
Mon 02:19:00 PM 33.2320 108.8811 277° West  Level Estimated
Mon 02:20:00 PM 33.2445 108.7535 277° West  Level Estimated
Mon 02:21:00 PM 33.2568 108.6258 277° West  Level Estimated
Mon 02:22:00 PM 33.2690 108.4982 277° West  Level Estimated
Mon 02:23:00 PM 33.2811 108.3704 276° West  Level Estimated
Mon 02:24:00 PM 33.2930 108.2427 276° West  Level Estimated
Mon 02:25:00 PM 33.3048 108.1149 276° West  Level Estimated
Mon 02:26:00 PM 33.3165 107.9871 276° West  Level Estimated
Mon 02:27:00 PM 33.3280 107.8592 276° West  Level Estimated
Mon 02:28:00 PM 33.3394 107.7314 276° West  Level Estimated
Mon 02:29:00 PM 33.3507 107.6034 276° West  Level Estimated
Mon 02:30:00 PM 33.3619 107.4755 276° West  Level Estimated
Mon 02:31:00 PM 33.3729 107.3475 276° West  Level Estimated
Mon 02:32:00 PM 33.3838 107.2195 276° West  Level Estimated
Mon 02:33:00 PM 33.3945 107.0914 276° West  Level Estimated
Mon 02:34:00 PM 33.4051 106.9633 276° West  Level Estimated
Mon 02:35:00 PM 33.4156 106.8352 276° West  Level Estimated
Mon 02:36:00 PM 33.4260 106.7071 276° West  Level Estimated
Mon 02:37:00 PM 33.4362 106.5789 275° West  Level Estimated
Mon 02:38:00 PM 33.4463 106.4507 275° West  Level Estimated
Mon 02:39:00 PM 33.4563 106.3225 275° West  Level Estimated
Mon 02:40:00 PM 33.4661 106.1942 275° West  Level Estimated
Mon 02:41:00 PM 33.4758 106.0659 275° West  Level Estimated
Mon 02:42:00 PM 33.4854 105.9376 275° West  Level Estimated
Mon 02:43:00 PM 33.4948 105.8093 275° West  Level Estimated
Mon 02:44:00 PM 33.5041 105.6809 275° West  Level Estimated
Mon 02:45:00 PM 33.5133 105.5525 275° West  Level Estimated
Mon 02:46:00 PM 33.5223 105.4241 275° West  Level Estimated
Mon 02:47:00 PM 33.5312 105.2956 275° West  Level Estimated
Mon 02:48:00 PM 33.5400 105.1671 275° West  Level Estimated
Mon 02:49:00 PM 33.5487 105.0386 275° West  Level Estimated
Mon 02:50:00 PM 33.5572 104.9101 275° West  Level Estimated
Mon 02:51:00 PM 33.5655 104.7815 275° West  Level Estimated
Mon 02:52:00 PM 33.5738 104.6529 274° West  Level Estimated
Mon 02:53:00 PM 33.5819 104.5243 274° West  Level Estimated
Mon 02:54:00 PM 33.5899 104.3957 274° West  Level Estimated
Mon 02:55:00 PM 33.5977 104.2671 274° West  Level Estimated
Mon 02:56:00 PM 33.6054 104.1384 274° West  Level Estimated
Mon 02:57:00 PM 33.6130 104.0097 274° West  Level Estimated
Mon 02:58:00 PM 33.6204 103.8809 274° West  Level Estimated
Mon 02:59:00 PM 33.6278 103.7522 274° West  Level Estimated
Mon 03:00:00 PM 33.6349 103.6234 274° West  Level Estimated
Mon 03:01:00 PM 33.6420 103.4946 274° West  Level Estimated
Mon 03:02:00 PM 33.6489 103.3658 274° West  Level Estimated
Mon 03:03:00 PM 33.6557 103.2370 274° West  Level Estimated
Mon 03:04:00 PM 33.6623 103.1081 274° West  Level Estimated
Mon 03:05:00 PM 33.6688 102.9793 274° West  Level Estimated
Mon 03:06:00 PM 33.6752 102.8504 273° West  Level Estimated
Mon 03:07:00 PM 33.6814 102.7215 273° West  Level Estimated
Mon 03:08:00 PM 33.6875 102.5926 273° West  Level Estimated
Mon 03:09:00 PM 33.6935 102.4636 273° West  Level Estimated
Mon 03:10:00 PM 33.6994 102.3346 273° West  Level Estimated
Mon 03:11:00 PM 33.7051 102.2057 273° West  Level Estimated
Mon 03:12:00 PM 33.7106 102.0767 273° West  Level Estimated
Mon 03:13:00 PM 33.7161 101.9476 273° West  Level Estimated
Mon 03:14:00 PM 33.7214 101.8186 273° West  Level Estimated
Mon 03:15:00 PM 33.7266 101.6896 273° West  Level Estimated
Mon 03:16:00 PM 33.7316 101.5605 273° West  Level Estimated
Mon 03:17:00 PM 33.7365 101.4314 273° West  Level Estimated
Mon 03:18:00 PM 33.7412 101.3024 273° West  Level Estimated
Mon 03:19:00 PM 33.7459 101.1732 273° West  Level Estimated
Mon 03:20:00 PM 33.7504 101.0441 272° West  Level Estimated
Mon 03:21:00 PM 33.7547 100.9150 272° West  Level Estimated
Mon 03:22:00 PM 33.7590 100.7859 272° West  Level Estimated
Mon 03:23:00 PM 33.7631 100.6567 272° West  Level Estimated
Mon 03:24:00 PM 33.7670 100.5275 272° West  Level Estimated
Mon 03:25:00 PM 33.7709 100.3984 272° West  Level Estimated
Mon 03:26:00 PM 33.7745 100.2691 272° West  Level Estimated
Mon 03:27:00 PM 33.7781 100.1400 272° West  Level Estimated
Mon 03:28:00 PM 33.7815 100.0107 272° West  Level Estimated
Mon 03:29:00 PM 33.7848 99.8815 272° West  Level Estimated
Mon 03:30:00 PM 33.7880 99.7523 272° West  Level Estimated
Mon 03:31:00 PM 33.7910 99.6230 272° West  Level Estimated
Mon 03:32:00 PM 33.7939 99.4938 272° West  Level Estimated
Mon 03:33:00 PM 33.7966 99.3645 272° West  Level Estimated
Mon 03:34:00 PM 33.7992 99.2353 271° West  Level Estimated
Mon 03:35:00 PM 33.8017 99.1060 271° West  Level Estimated
Mon 03:36:00 PM 33.8040 98.9767 271° West  Level Estimated
Mon 03:37:00 PM 33.8063 98.8474 271° West  Level Estimated
Mon 03:38:00 PM 33.8083 98.7181 271° West  Level Estimated
Mon 03:39:00 PM 33.8103 98.5888 271° West  Level Estimated
Mon 03:40:00 PM 33.8121 98.4595 271° West  Level Estimated
Mon 03:41:00 PM 33.8137 98.3302 271° West  Level Estimated
Mon 03:42:00 PM 33.8153 98.2009 271° West  Level Estimated
Mon 03:43:00 PM 33.8167 98.0715 271° West  Level Estimated
Mon 03:44:00 PM 33.8179 97.9422 271° West  Level Estimated
Mon 03:45:00 PM 33.8191 97.8129 271° West  Level Estimated
Mon 03:46:00 PM 33.8200 97.6835 271° West  Level Estimated
Mon 03:47:00 PM 33.8209 97.5542 270° West  Level Estimated
Mon 03:48:00 PM 33.8216 97.4249 270° West  Level Estimated
Mon 03:49:00 PM 33.8222 97.2955 270° West  Level Estimated
Mon 03:50:00 PM 33.8227 97.1662 270° West  Level Estimated
Mon 03:51:00 PM 33.8230 97.0368 270° West  Level Estimated
Mon 03:52:00 PM 33.8232 96.9075 270° West  Level Estimated
Mon 03:53:00 PM 33.8232 96.7782 270° West  Level Estimated
Mon 03:54:00 PM 33.8231 96.6488 270° West  Level Estimated
Mon 03:55:00 PM 33.8229 96.5195 270° West  Level Estimated
Mon 03:56:00 PM 33.8226 96.3901 270° West  Level Estimated
Mon 03:57:00 PM 33.8221 96.2608 270° West  Level Estimated
Mon 03:58:00 PM 33.8214 96.1314 270° West  Level Estimated
Mon 03:59:00 PM 33.8207 96.0021 270° West  Level Estimated
Mon 04:00:00 PM 33.8198 95.8728 270° West  Level Estimated
Mon 04:01:00 PM 33.8188 95.7434 269° West  Level Estimated
Mon 04:02:00 PM 33.8176 95.6141 269° West  Level Estimated
Mon 04:03:00 PM 33.8163 95.4848 269° West  Level Estimated
Mon 04:04:00 PM 33.8149 95.3555 269° West  Level Estimated
Mon 04:05:00 PM 33.8133 95.2262 269° West  Level Estimated
Mon 04:06:00 PM 33.8116 95.0968 269° West  Level Estimated
Mon 04:07:00 PM 33.8097 94.9675 269° West  Level Estimated
Mon 04:08:00 PM 33.8078 94.8382 269° West  Level Estimated
Mon 04:09:00 PM 33.8056 94.7089 269° West  Level Estimated
Mon 04:10:00 PM 33.8034 94.5796 269° West  Level Estimated
Mon 04:11:00 PM 33.8010 94.4504 269° West  Level Estimated
Mon 04:12:00 PM 33.7985 94.3211 269° West  Level Estimated
Mon 04:13:00 PM 33.7959 94.1918 269° West  Level Estimated
Mon 04:14:00 PM 33.7931 94.0626 269° West  Level Estimated
Mon 04:15:00 PM 33.7901 93.9333 268° West  Level Estimated
Mon 04:16:00 PM 33.7871 93.8041 268° West  Level Estimated
Mon 04:17:00 PM 33.7839 93.6748 268° West  Level Estimated
Mon 04:18:00 PM 33.7806 93.5456 268° West  Level Estimated
Mon 04:19:00 PM 33.7771 93.4164 268° West  Level Estimated
Mon 04:20:00 PM 33.7735 93.2872 268° West  Level Estimated
Mon 04:21:00 PM 33.7698 93.1580 268° West  Level Estimated
Mon 04:22:00 PM 33.7659 93.0288 268° West  Level Estimated
Mon 04:23:00 PM 33.7620 92.8997 268° West  Level Estimated
Mon 04:24:00 PM 33.7578 92.7705 268° West  Level Estimated
Mon 04:25:00 PM 33.7536 92.6414 268° West  Level Estimated
Mon 04:26:00 PM 33.7491 92.5123 268° West  Level Estimated
Mon 04:27:00 PM 33.7446 92.3831 268° West  Level Estimated
Mon 04:28:00 PM 33.7399 92.2540 268° West  Level Estimated
Mon 04:29:00 PM 33.7351 92.1250 267° West  Level Estimated
Mon 04:30:00 PM 33.7302 91.9959 267° West  Level Estimated
Mon 04:31:00 PM 33.7251 91.8668 267° West  Level Estimated
Mon 04:32:00 PM 33.7199 91.7378 267° West  Level Estimated
Mon 04:33:00 PM 33.7146 91.6088 267° West  Level Estimated
Mon 04:34:00 PM 33.7091 91.4798 267° West  Level Estimated
Mon 04:35:00 PM 33.7035 91.3508 267° West  Level Estimated
Mon 04:36:00 PM 33.6978 91.2218 267° West  Level Estimated
Mon 04:37:00 PM 33.6919 91.0928 267° West  Level Estimated
Mon 04:38:00 PM 33.6859 90.9639 267° West  Level Estimated
Mon 04:39:00 PM 33.6797 90.8350 267° West  Level Estimated
Mon 04:40:00 PM 33.6734 90.7061 267° West  Level Estimated
Mon 04:41:00 PM 33.6670 90.5772 267° West  Level Estimated
Mon 04:42:00 PM 33.6605 90.4483 267° West  Level Estimated
Mon 04:43:00 PM 33.6538 90.3195 266° West  Level Estimated
Mon 04:44:00 PM 33.6470 90.1906 266° West  Level Estimated
Mon 04:45:00 PM 33.6400 90.0618 266° West  Level Estimated
Mon 04:46:00 PM 33.6330 89.9331 266° West  Level Estimated
Mon 04:47:00 PM 33.6258 89.8043 266° West  Level Estimated
Mon 04:48:00 PM 33.6184 89.6756 266° West  Level Estimated
Mon 04:49:00 PM 33.6109 89.5468 266° West  Level Estimated
Mon 04:50:00 PM 33.6033 89.4181 266° West  Level Estimated
Mon 04:51:00 PM 33.5956 89.2895 266° West  Level Estimated
Mon 04:52:00 PM 33.5877 89.1608 266° West  Level Estimated
Mon 04:53:00 PM 33.5797 89.0322 266° West  Level Estimated
Mon 04:54:00 PM 33.5715 88.9036 266° West  Level Estimated
Mon 04:55:00 PM 33.5632 88.7750 266° West  Level Estimated
Mon 04:56:00 PM 33.5548 88.6465 266° West  Level Estimated
Mon 04:57:00 PM 33.5463 88.5179 265° West  Level Estimated
Mon 04:58:00 PM 33.5376 88.3894 265° West  Level Estimated
Mon 04:59:00 PM 33.5288 88.2610 265° West  Level Estimated
Mon 05:00:00 PM 33.5199 88.1325 265° West  Level Estimated
Mon 05:01:00 PM 33.5108 88.0041 265° West  Level Estimated
Mon 05:02:00 PM 33.5016 87.8757 265° West  Level Estimated
Mon 05:03:00 PM 33.4922 87.7473 265° West  Level Estimated
Mon 05:04:00 PM 33.4827 87.6190 265° West  Level Estimated
Mon 05:05:00 PM 33.4731 87.4907 265° West  Level Estimated
Mon 05:06:00 PM 33.4634 87.3624 265° West  Level Estimated
Mon 05:07:00 PM 33.4535 87.2341 265° West  Level Estimated
Mon 05:08:00 PM 33.4435 87.1059 265° West  Level Estimated
Mon 05:09:00 PM 33.4334 86.9777 265° West  Level Estimated
Mon 05:10:00 PM 33.4231 86.8496 265° West  Level Estimated
Mon 05:11:00 PM 33.4127 86.7214 264° West  Level Estimated
Mon 05:12:00 PM 33.4022 86.5933 264° West  Level Estimated
Mon 05:13:00 PM 33.3915 86.4652 264° West  Level Estimated
Mon 05:14:00 PM 33.3808 86.3372 264° West  Level Estimated
Mon 05:15:00 PM 33.3698 86.2092 264° West  Level Estimated
Mon 05:16:00 PM 33.3588 86.0812 264° West  Level Estimated
Mon 05:17:00 PM 33.3476 85.9533 264° West  Level Estimated
Mon 05:18:00 PM 33.3363 85.8254 264° West  Level Estimated
Mon 05:19:00 PM 33.3248 85.6975 264° West  Level Estimated
Mon 05:20:00 PM 33.3133 85.5696 264° West  Level Estimated
Mon 05:21:00 PM 33.3015 85.4418 264° West  Level Estimated
Mon 05:22:00 PM 33.2897 85.3141 264° West  Level Estimated
Mon 05:23:00 PM 33.2777 85.1863 264° West  Level Estimated
Mon 05:24:00 PM 33.2656 85.0586 264° West  Level Estimated
Mon 05:25:00 PM 33.2534 84.9310 263° West  Level Estimated
Mon 05:26:00 PM 33.2410 84.8033 263° West  Level Estimated
Mon 05:27:00 PM 33.2285 84.6757 263° West  Level Estimated
Mon 05:28:00 PM 33.2159 84.5482 263° West  Level Estimated
Mon 05:29:00 PM 33.2032 84.4206 263° West  Level Estimated
Mon 05:30:00 PM 33.1903 84.2932 263° West  Level Estimated
Mon 05:31:00 PM 33.1773 84.1657 263° West  Level Estimated
Mon 05:32:00 PM 33.1641 84.0383 263° West  Level Estimated
Mon 05:33:00 PM 33.1508 83.9109 263° West  Level Estimated
Mon 05:34:00 PM 33.1374 83.7836 263° West  Level Estimated
Mon 05:35:00 PM 33.1239 83.6563 263° West  Level Estimated
Mon 05:36:00 PM 33.1102 83.5291 263° West  Level Estimated
Mon 05:37:00 PM 33.0965 83.4018 263° West  Level Estimated
Mon 05:38:00 PM 33.0825 83.2747 263° West  Level Estimated
Mon 05:39:00 PM 33.0685 83.1475 263° West  Level Estimated
Mon 05:40:00 PM 33.0543 83.0204 262° West  Level Estimated
Mon 05:41:00 PM 33.0400 82.8934 262° West  Level Estimated
Mon 05:42:00 PM 33.0256 82.7664 262° West  Level Estimated
Mon 05:43:00 PM 33.0110 82.6394 262° West  Level Estimated
Mon 05:44:00 PM 32.9963 82.5125 262° West  Level Estimated
Mon 05:45:00 PM 32.9815 82.3856 262° West  Level Estimated
Mon 05:46:00 PM 32.9665 82.2588 262° West  Level Estimated
Mon 05:47:00 PM 32.9515 82.1320 262° West  Level Estimated
Mon 05:48:00 PM 32.9363 82.0052 262° West  Level Estimated
Mon 05:49:00 PM 32.9209 81.8785 262° West  Level Estimated
Mon 05:50:00 PM 32.9055 81.7518 262° West  Level Estimated
Mon 05:51:00 PM 32.8899 81.6252 262° West  Level Estimated
Mon 05:52:00 PM 32.8741 81.4986 262° West  Level Estimated
Mon 05:53:00 PM 32.8583 81.3721 262° West  Level Estimated
Mon 05:54:00 PM 32.8423 81.2456 261° West  Level Estimated
Mon 05:55:00 PM 32.8262 81.1192 261° West  Level Estimated
Mon 05:56:00 PM 32.8100 80.9928 261° West  Level Estimated
Mon 05:57:00 PM 32.7937 80.8664 261° West  Level Estimated
Mon 05:58:00 PM 32.7772 80.7401 261° West  Level Estimated
Mon 05:59:00 PM 32.7606 80.6139 261° West  Level Estimated
Mon 06:00:00 PM 32.7438 80.4876 261° West  Level Estimated
Mon 06:01:00 PM 32.7270 80.3615 261° West  Level Estimated
Mon 06:02:00 PM 32.7100 80.2354 261° West  Level Estimated
Mon 06:03:00 PM 32.6929 80.1093 261° West  Level Estimated
Mon 06:04:00 PM 32.6757 79.9833 261° West  Level Estimated
Mon 06:05:00 PM 32.6583 79.8573 261° West  Level Estimated
Mon 06:06:00 PM 32.6408 79.7314 261° West  Level Estimated
Mon 06:07:00 PM 32.6232 79.6055 261° West  Level Estimated
Mon 06:08:00 PM 32.6054 79.4797 261° West  Level Estimated
Mon 06:09:00 PM 32.5876 79.3540 260° West  Level Estimated
Mon 06:10:00 PM 32.5696 79.2282 260° West  Level Estimated
Mon 06:11:00 PM 32.5515 79.1026 260° West  Level Estimated
Mon 06:12:00 PM 32.5332 78.9770 260° West  Level Estimated
Mon 06:13:00 PM 32.5149 78.8514 260° West  Level Estimated
Mon 06:14:00 PM 32.4964 78.7259 260° West  Level Estimated
Mon 06:15:00 PM 32.4778 78.6004 260° West  Level Estimated
Mon 06:16:00 PM 32.4590 78.4750 260° West  Level Estimated
Mon 06:17:00 PM 32.4402 78.3496 260° West  Level Estimated
Mon 06:18:00 PM 32.4212 78.2243 260° West  Level Estimated
Mon 06:19:00 PM 32.4021 78.0991 260° West  Level Estimated
Mon 06:20:00 PM 32.3828 77.9739 260° West  Level Estimated
Mon 06:21:00 PM 32.3635 77.8487 260° West  Level Estimated
Mon 06:22:00 PM 32.3440 77.7236 260° West  Level Estimated
Mon 06:23:00 PM 32.3244 77.5986 260° West  Level Estimated
Mon 06:24:00 PM 32.3046 77.4736 259° West  Level Estimated
Mon 06:25:00 PM 32.2848 77.3487 259° West  Level Estimated
Mon 06:26:00 PM 32.2648 77.2238 259° West  Level Estimated
Mon 06:27:00 PM 32.2447 77.0990 259° West  Level Estimated
Mon 06:28:00 PM 32.2245 76.9742 259° West  Level Estimated
Mon 06:29:00 PM 32.2042 76.8495 259° West  Level Estimated
Mon 06:30:00 PM 32.1837 76.7249 259° West  Level Estimated
Mon 06:31:00 PM 32.1631 76.6003 259° West  Level Estimated
Mon 06:32:00 PM 32.1424 76.4757 259° West  Level Estimated
Mon 06:33:00 PM 32.1216 76.3512 259° West  Level Estimated
Mon 06:34:00 PM 32.1006 76.2268 259° West  Level Estimated
Mon 06:35:00 PM 32.0795 76.1024 259° West  Level Estimated
Mon 06:36:00 PM 32.0583 75.9781 259° West  Level Estimated
Mon 06:37:00 PM 32.0370 75.8539 259° West  Level Estimated
Mon 06:38:00 PM 32.0156 75.7297 259° West  Level Estimated
Mon 06:39:00 PM 31.9940 75.6056 258° West  Level Estimated
Mon 06:40:00 PM 31.9723 75.4815 258° West  Level Estimated
Mon 06:41:00 PM 31.9505 75.3575 258° West  Level Estimated
Mon 06:42:00 PM 31.9286 75.2335 258° West  Level Estimated
Mon 06:43:00 PM 31.9066 75.1096 258° West  Level Estimated
Mon 06:44:00 PM 31.8844 74.9857 258° West  Level Estimated
Mon 06:45:00 PM 31.8621 74.8620 258° West  Level Estimated
Mon 06:46:00 PM 31.8397 74.7382 258° West  Level Estimated
Mon 06:47:00 PM 31.8172 74.6146 258° West  Level Estimated
Mon 06:48:00 PM 31.7946 74.4910 258° West  Level Estimated
Mon 06:49:00 PM 31.7718 74.3674 258° West  Level Estimated
Mon 06:50:00 PM 31.7489 74.2439 258° West  Level Estimated
Mon 06:51:00 PM 31.7259 74.1205 258° West  Level Estimated
Mon 06:52:00 PM 31.7028 73.9972 258° West  Level Estimated
Mon 06:53:00 PM 31.6796 73.8739 258° West  Level Estimated
Mon 06:54:00 PM 31.6562 73.7506 257° West  Level Estimated
Mon 06:55:00 PM 31.6327 73.6275 257° West  Level Estimated
Mon 06:56:00 PM 31.6091 73.5044 257° West  Level Estimated
Mon 06:57:00 PM 31.5854 73.3813 257° West  Level Estimated
Mon 06:58:00 PM 31.5616 73.2583 257° West  Level Estimated
Mon 06:59:00 PM 31.5377 73.1354 257° West  Level Estimated
Mon 07:00:00 PM 31.5136 73.0126 257° West  Level Estimated
Mon 07:01:00 PM 31.4894 72.8897 257° West  Level Estimated
Mon 07:02:00 PM 31.4651 72.7670 257° West  Level Estimated
Mon 07:03:00 PM 31.4407 72.6443 257° West  Level Estimated
Mon 07:04:00 PM 31.4162 72.5218 257° West  Level Estimated
Mon 07:05:00 PM 31.3915 72.3992 257° West  Level Estimated
Mon 07:06:00 PM 31.3668 72.2767 257° West  Level Estimated
Mon 07:07:00 PM 31.3419 72.1543 257° West  Level Estimated
Mon 07:08:00 PM 31.3169 72.0320 257° West  Level Estimated
Mon 07:09:00 PM 31.2918 71.9097 257° West  Level Estimated
Mon 07:10:00 PM 31.2666 71.7875 256° West  Level Estimated
Mon 07:11:00 PM 31.2412 71.6653 256° West  Level Estimated
Mon 07:12:00 PM 31.2157 71.5433 256° West  Level Estimated
Mon 07:13:00 PM 31.1902 71.4212 256° West  Level Estimated
Mon 07:14:00 PM 31.1645 71.2993 256° West  Level Estimated
Mon 07:15:00 PM 31.1387 71.1774 256° West  Level Estimated
Mon 07:16:00 PM 31.1128 71.0556 256° West  Level Estimated
Mon 07:17:00 PM 31.0867 70.9338 256° West  Level Estimated
Mon 07:18:00 PM 31.0606 70.8121 256° West  Level Estimated
Mon 07:19:00 PM 31.0343 70.6905 256° West  Level Estimated
Mon 07:20:00 PM 31.0079 70.5690 256° West  Level Estimated
Mon 07:21:00 PM 30.9814 70.4475 256° West  Level Estimated
Mon 07:22:00 PM 30.9548 70.3261 256° West  Level Estimated
Mon 07:23:00 PM 30.9281 70.2047 256° West  Level Estimated
Mon 07:24:00 PM 30.9013 70.0834 256° West  Level Estimated
Mon 07:25:00 PM 30.8743 69.9622 256° West  Level Estimated
Mon 07:26:00 PM 30.8473 69.8411 255° West  Level Estimated
Mon 07:27:00 PM 30.8201 69.7200 255° West  Level Estimated
Mon 07:28:00 PM 30.7929 69.5990 255° West  Level Estimated
Mon 07:29:00 PM 30.7654 69.4781 255° West  Level Estimated
Mon 07:30:00 PM 30.7379 69.3572 255° West  Level Estimated
Mon 07:31:00 PM 30.7103 69.2364 255° West  Level Estimated
Mon 07:32:00 PM 30.6826 69.1156 255° West  Level Estimated
Mon 07:33:00 PM 30.6548 68.9950 255° West  Level Estimated
Mon 07:34:00 PM 30.6268 68.8744 255° West  Level Estimated
Mon 07:35:00 PM 30.5987 68.7539 255° West  Level Estimated
Mon 07:36:00 PM 30.5706 68.6334 255° West  Level Estimated
Mon 07:37:00 PM 30.5423 68.5130 255° West  Level Estimated
Mon 07:38:00 PM 30.5139 68.3927 255° West  Level Estimated
Mon 07:39:00 PM 30.4854 68.2725 255° West  Level Estimated
Mon 07:40:00 PM 30.4568 68.1523 255° West  Level Estimated
Mon 07:41:00 PM 30.4280 68.0322 255° West  Level Estimated
Mon 07:42:00 PM 30.3992 67.9122 254° West  Level Estimated
Mon 07:43:00 PM 30.3703 67.7922 254° West  Level Estimated
Mon 07:44:00 PM 30.3412 67.6723 254° West  Level Estimated
Mon 07:45:00 PM 30.3120 67.5525 254° West  Level Estimated
Mon 07:46:00 PM 30.2828 67.4328 254° West  Level Estimated
Mon 07:47:00 PM 30.2534 67.3131 254° West  Level Estimated
Mon 07:48:00 PM 30.2239 67.1935 254° West  Level Estimated
Mon 07:49:00 PM 30.1943 67.0740 254° West  Level Estimated
Mon 07:50:00 PM 30.1646 66.9545 254° West  Level Estimated
Mon 07:51:00 PM 30.1348 66.8351 254° West  Level Estimated
Mon 07:52:00 PM 30.1048 66.7158 254° West  Level Estimated
Mon 07:53:00 PM 30.0748 66.5966 254° West  Level Estimated
Mon 07:54:00 PM 30.0447 66.4774 254° West  Level Estimated
Mon 07:55:00 PM 30.0144 66.3583 254° West  Level Estimated
Mon 07:56:00 PM 29.9841 66.2393 254° West  Level Estimated
Mon 07:57:00 PM 29.9536 66.1203 254° West  Level Estimated
Mon 07:58:00 PM 29.9230 66.0015 254° West  Level Estimated
Mon 07:59:00 PM 29.8923 65.8827 253° West  Level Estimated
Mon 08:00:00 PM 29.8616 65.7639 253° West  Level Estimated
Mon 08:01:00 PM 29.8307 65.6453 253° West  Level Estimated
Mon 08:02:00 PM 29.7997 65.5267 253° West  Level Estimated
Mon 08:03:00 PM 29.7686 65.4082 253° West  Level Estimated
Mon 08:04:00 PM 29.7374 65.2897 253° West  Level Estimated
Mon 08:05:00 PM 29.7061 65.1714 253° West  Level Estimated
Mon 08:06:00 PM 29.6747 65.0531 253° West  Level Estimated
Mon 08:07:00 PM 29.6431 64.9349 253° West  Level Estimated
Mon 08:08:00 PM 29.6115 64.8167 253° West  Level Estimated
Mon 08:09:00 PM 29.5798 64.6987 253° West  Level Estimated
Mon 08:10:00 PM 29.5480 64.5807 253° West  Level Estimated
Mon 08:11:00 PM 29.5160 64.4628 253° West  Level Estimated
Mon 08:12:00 PM 29.4840 64.3449 253° West  Level Estimated
Mon 08:13:00 PM 29.4518 64.2271 253° West  Level Estimated
Mon 08:14:00 PM 29.4196 64.1095 253° West  Level Estimated
Mon 08:15:00 PM 29.3872 63.9918 253° West  Level Estimated
Mon 08:16:00 PM 29.3548 63.8743 252° West  Level Estimated
Mon 08:17:00 PM 29.3222 63.7568 252° West  Level Estimated
Mon 08:18:00 PM 29.2895 63.6394 252° West  Level Estimated
Mon 08:19:00 PM 29.2568 63.5221 252° West  Level Estimated
Mon 08:20:00 PM 29.2239 63.4049 252° West  Level Estimated
Mon 08:21:00 PM 29.1909 63.2877 252° West  Level Estimated
Mon 08:22:00 PM 29.1579 63.1706 252° West  Level Estimated
Mon 08:23:00 PM 29.1247 63.0536 252° West  Level Estimated
Mon 08:24:00 PM 29.0914 62.9366 252° West  Level Estimated
Mon 08:25:00 PM 29.0581 62.8198 252° West  Level Estimated
Mon 08:26:00 PM 29.0246 62.7030 252° West  Level Estimated
Mon 08:27:00 PM 28.9910 62.5863 252° West  Level Estimated
Mon 08:28:00 PM 28.9573 62.4696 252° West  Level Estimated
Mon 08:29:00 PM 28.9235 62.3531 252° West  Level Estimated
Mon 08:30:00 PM 28.8897 62.2366 252° West  Level Estimated
Mon 08:31:00 PM 28.8557 62.1202 252° West  Level Estimated
Mon 08:32:00 PM 28.8216 62.0038 252° West  Level Estimated
Mon 08:33:00 PM 28.7874 61.8876 251° West  Level Estimated
Mon 08:34:00 PM 28.7531 61.7714 251° West  Level Estimated
Mon 08:35:00 PM 28.7188 61.6553 251° West  Level Estimated
Mon 08:36:00 PM 28.6843 61.5393 251° West  Level Estimated
Mon 08:37:00 PM 28.6497 61.4233 251° West  Level Estimated
Mon 08:38:00 PM 28.6150 61.3074 251° West  Level Estimated
Mon 08:39:00 PM 28.5803 61.1916 251° West  Level Estimated
Mon 08:40:00 PM 28.5454 61.0759 251° West  Level Estimated
Mon 08:41:00 PM 28.5104 60.9603 251° West  Level Estimated
Mon 08:42:00 PM 28.4753 60.8447 251° West  Level Estimated
Mon 08:43:00 PM 28.4402 60.7292 251° West  Level Estimated
Mon 08:44:00 PM 28.4049 60.6138 251° West  Level Estimated
Mon 08:45:00 PM 28.3696 60.4984 251° West  Level Estimated
Mon 08:46:00 PM 28.3341 60.3832 251° West  Level Estimated
Mon 08:47:00 PM 28.2986 60.2680 251° West  Level Estimated
Mon 08:48:00 PM 28.2629 60.1529 251° West  Level Estimated
Mon 08:49:00 PM 28.2272 60.0379 251° West  Level Estimated
Mon 08:50:00 PM 28.1913 59.9229 251° West  Level Estimated
Mon 08:51:00 PM 28.1554 59.8080 250° West  Level Estimated
Mon 08:52:00 PM 28.1194 59.6932 250° West  Level Estimated
Mon 08:53:00 PM 28.0832 59.5785 250° West  Level Estimated
Mon 08:54:00 PM 28.0470 59.4639 250° West  Level Estimated
Mon 08:55:00 PM 28.0107 59.3493 250° West  Level Estimated
Mon 08:56:00 PM 27.9743 59.2348 250° West  Level Estimated
Mon 08:57:00 PM 27.9377 59.1204 250° West  Level Estimated
Mon 08:58:00 PM 27.9011 59.0061 250° West  Level Estimated
Mon 08:59:00 PM 27.8645 58.8918 250° West  Level Estimated
Mon 09:00:00 PM 27.8277 58.7776 250° West  Level Estimated
Mon 09:01:00 PM 27.7908 58.6635 250° West  Level Estimated
Mon 09:02:00 PM 27.7538 58.5495 250° West  Level Estimated
Mon 09:03:00 PM 27.7167 58.4355 250° West  Level Estimated
Mon 09:04:00 PM 27.6796 58.3217 250° West  Level Estimated
Mon 09:05:00 PM 27.6423 58.2079 250° West  Level Estimated
Mon 09:06:00 PM 27.6049 58.0942 250° West  Level Estimated
Mon 09:07:00 PM 27.5675 57.9805 250° West  Level Estimated
Mon 09:08:00 PM 27.5299 57.8670 250° West  Level Estimated
Mon 09:09:00 PM 27.4923 57.7535 250° West  Level Estimated
Mon 09:10:00 PM 27.4546 57.6401 249° West  Level Estimated
Mon 09:11:00 PM 27.4168 57.5267 249° West  Level Estimated
Mon 09:12:00 PM 27.3789 57.4135 249° West  Level Estimated
Mon 09:13:00 PM 27.3409 57.3003 249° West  Level Estimated
Mon 09:14:00 PM 27.3028 57.1872 249° West  Level Estimated
Mon 09:15:00 PM 27.2646 57.0742 249° West  Level Estimated
Mon 09:16:00 PM 27.2264 56.9613 249° West  Level Estimated
Mon 09:17:00 PM 27.1880 56.8484 249° West  Level Estimated
Mon 09:18:00 PM 27.1495 56.7356 249° West  Level Estimated
Mon 09:19:00 PM 27.1110 56.6229 249° West  Level Estimated
Mon 09:20:00 PM 27.0724 56.5103 249° West  Level Estimated
Mon 09:21:00 PM 27.0336 56.3977 249° West  Level Estimated
Mon 09:22:00 PM 26.9948 56.2853 249° West  Level Estimated
Mon 09:23:00 PM 26.9559 56.1729 249° West  Level Estimated
Mon 09:24:00 PM 26.9170 56.0606 249° West  Level Estimated
Mon 09:25:00 PM 26.8779 55.9483 249° West  Level Estimated
Mon 09:26:00 PM 26.8387 55.8362 249° West  Level Estimated
Mon 09:27:00 PM 26.7995 55.7241 249° West  Level Estimated
Mon 09:28:00 PM 26.7601 55.6121 249° West  Level Estimated
Mon 09:29:00 PM 26.7207 55.5001 248° West  Level Estimated
Mon 09:30:00 PM 26.6812 55.3883 248° West  Level Estimated
Mon 09:31:00 PM 26.6416 55.2765 248° West  Level Estimated
Mon 09:32:00 PM 26.6019 55.1648 248° West  Level Estimated
Mon 09:33:00 PM 26.5621 55.0532 248° West  Level Estimated
Mon 09:34:00 PM 26.5222 54.9417 248° West  Level Estimated
Mon 09:35:00 PM 26.4823 54.8302 248° West  Level Estimated
Mon 09:36:00 PM 26.4422 54.7188 248° West  Level Estimated
Mon 09:37:00 PM 26.4021 54.6075 248° West  Level Estimated
Mon 09:38:00 PM 26.3619 54.4963 248° West  Level Estimated
Mon 09:39:00 PM 26.3216 54.3851 248° West  Level Estimated
Mon 09:40:00 PM 26.2812 54.2740 248° West  Level Estimated
Mon 09:41:00 PM 26.2408 54.1630 248° West  Level Estimated
Mon 09:42:00 PM 26.2002 54.0521 248° West  Level Estimated
Mon 09:43:00 PM 26.1596 53.9413 248° West  Level Estimated
Mon 09:44:00 PM 26.1188 53.8305 248° West  Level Estimated
Mon 09:45:00 PM 26.0780 53.7198 248° West  Level Estimated
Mon 09:46:00 PM 26.0371 53.6092 248° West  Level Estimated
Mon 09:47:00 PM 25.9962 53.4987 248° West  Level Estimated
Mon 09:48:00 PM 25.9551 53.3882 248° West  Level Estimated
Mon 09:49:00 PM 25.9140 53.2778 248° West  Level Estimated
Mon 09:50:00 PM 25.8727 53.1675 247° West  Level Estimated
Mon 09:51:00 PM 25.8314 53.0573 247° West  Level Estimated
Mon 09:52:00 PM 25.7900 52.9471 247° West  Level Estimated
Mon 09:53:00 PM 25.7486 52.8371 247° West  Level Estimated
Mon 09:54:00 PM 25.7070 52.7271 247° West  Level Estimated
Mon 09:55:00 PM 25.6653 52.6171 247° West  Level Estimated
Mon 09:56:00 PM 25.6236 52.5073 247° West  Level Estimated
Mon 09:57:00 PM 25.5818 52.3975 247° West  Level Estimated
Mon 09:58:00 PM 25.5399 52.2879 247° West  Level Estimated
Mon 09:59:00 PM 25.4980 52.1782 247° West  Level Estimated
Mon 10:00:00 PM 25.4559 52.0687 247° West  Level Estimated
Mon 10:01:00 PM 25.4138 51.9593 247° West  Level Estimated
Mon 10:02:00 PM 25.3716 51.8499 247° West  Level Estimated
Mon 10:03:00 PM 25.3293 51.7406 247° West  Level Estimated
Mon 10:04:00 PM 25.2869 51.6313 247° West  Level Estimated
Mon 10:05:00 PM 25.2611 51.5651 247° West  Level Estimated
Mon 10:06:00 PM 25.2611 51.5651 North  Level Estimated
Mon 10:07:00 PM 25.2611 51.5651 North  Level Estimated
Mon 10:08:00 PM 25.2611 51.5651 North  Level Estimated
Mon 10:09:00 PM 25.2611 51.5651 North  Level Estimated
Mon 10:10:00 PM 25.2611 51.5651 North  Level Estimated
Mon 10:11:00 PM 25.2611 51.5651 North  Level Estimated
Mon 10:12:00 PM 25.2611 51.5651 North  Level Estimated
Mon 10:13:00 PM 25.2611 51.5651 North  Level Estimated

Login

Don't have an account? Register now (free) for customized features, flight alerts, and more!